x

La Have Bank (44150) Wave Buoy

6:00pm - Sun 19th Apr 2015 All times are ADT. -3 hours from GMT.

  • Sig Wave height 4.3ft
  • Peak Period 6s
  • Wind
    4mph, 9mph gusts
  • Sea Temp 45°f
  • Air Temp 37°f
  • Sea Pressure 1024.3mb
  • La Have Bank
  • La Have Bank

More Historic Weather Station data

Upgrade to MSW Pro to gain access to the past 30 days of data for over 8000 Wavebouys and Weather Stations around the globe.

Join Pro

Comparision Forecast

View Surf forecast
   
Sun 04/19 6:00pm 4.5ft 6s 4 9 mph 1024.3mb 45f 37f
5:00pm 4.5ft 6s 11 13 mph 1024.3mb 45f 36f
3:00pm 5ft 6s 13 18 mph 1023.9mb 44f 36f
2:00pm 5ft 6s 13 18 mph 1023.5mb 44f 36f
1:00pm 5ft 5s 16 18 mph 1023.2mb 44f 35f
12:00pm 5.5ft 6s 18 22 mph 1022.6mb 44f 36f
11:00am 5.5ft 6s 20 22 mph 1021.5mb 44f 35f
10:00am 6ft 6s 20 25 mph 1020.4mb 44f 36f
8:00am 6ft 6s 22 27 mph 1017.4mb 44f 37f
7:00am 6ft 6s 20 25 mph 1015.8mb 44f 37f
6:00am 6.5ft 6s 25 27 mph 1015mb 44f 38f
5:00am 6ft 6s 27 34 mph 1013.4mb 44f 38f
4:00am  -   -  22
mph
- - -
2:00am 5.5ft 5s 20 25 mph 1013.6mb 45f 43f
1:00am 6ft 8s 9 13 mph 1013.2mb 45f 45f
12:00am 5ft 8s 18 22 mph 1013mb 46f 46f
Sat 04/18 11:00pm 5ft 8s 22 27 mph 1013.2mb 49f 46f
10:00pm  -   -  22
mph
- - -
9:00pm 5ft 8s 22 27 mph 1013.1mb 50f 45f
8:00pm 5ft 8s 22 25 mph 1012.9mb 50f 45f
7:00pm 5ft 9s 18 22 mph 1012.9mb 50f 45f
6:00pm 5ft 7s 16 20 mph 1013mb 50f 44f
5:00pm 5.5ft 8s 16 18 mph 1013.9mb 50f 44f
4:00pm 6ft 8s 13 18 mph 1015mb 51f 44f
3:00pm 6ft 8s 11 13 mph 1016.1mb 50f 44f
2:00pm 6ft 8s 11 13 mph 1016.7mb 50f 44f
1:00pm 6ft 8s 9 13 mph 1016.4mb 50f 44f
12:00pm 6ft 8s 11 16 mph 1015.8mb 50f 43f
11:00am 6ft 8s 11 13 mph 1014.6mb 49f 42f
10:00am 6.5ft 8s 11 16 mph 1013mb 49f 42f
9:00am 6.5ft 8s 16 18 mph 1011.7mb 49f 43f
8:00am 6.5ft 8s 18 20 mph 1010.9mb 49f 43f
7:00am 7ft 8s 18 20 mph 1010.3mb 49f 43f
6:00am 8ft 8s 16 20 mph 1010.3mb 49f 43f
5:00am 8ft 8s 18 20 mph 1010.1mb 49f 43f
4:00am 7ft 8s 18 22 mph 1010mb 49f 44f
3:00am 8ft 8s 20 22 mph 1010.1mb 49f 44f
2:00am 7ft 8s 22 29 mph 1010.6mb 49f 43f
1:00am 7.5ft 8s 22 27 mph 1010.9mb 49f 47f
12:00am 8.5ft 8s 25 31 mph 1011.1mb 49f 48f
Fri 04/17 11:00pm 8ft 7s 22 27 mph 1011.6mb 49f 49f
10:00pm 7.5ft 7s 25 29 mph 1012.1mb 49f 50f
9:00pm 7ft 6s 25 29 mph 1012.4mb 50f 50f
8:00pm 7ft 6s 29 34 mph 1013mb 50f 36f
7:00pm 6ft 6s 25 31 mph 1013.4mb 51f 51f
6:00pm 6ft 5s 27 31 mph 1014.3mb 50f 52f
5:00pm 6ft 5s 25 31 mph 1015.8mb 49f 52f
4:00pm 6ft 6s 27 31 mph 1016.5mb 50f 52f
3:00pm 6ft 5s 25 29 mph 1017.6mb 49f 52f
2:00pm 6ft 5s 22 27 mph 1019mb 49f 51f
1:00pm 6ft 5s 22 29 mph 1021mb 49f 51f
12:00pm 6ft 5s 22 27 mph 1022.4mb 50f 50f
11:00am 5.5ft 5s 25 29 mph 1023.2mb 50f 49f
10:00am 4.5ft 5s 22 27 mph 1023.6mb 49f 49f
9:00am 4.5ft 5s 25 29 mph 1023.7mb 49f 49f
8:00am 4ft 5s 22 29 mph 1024mb 49f 48f
7:00am 3.5ft 4s 22 27 mph 1024.4mb 48f 47f
6:00am 3.5ft  -  22 27 mph 1024.9mb 49f 46f
5:00am 3.5ft 4s 20 25 mph 1025.5mb 49f 46f
4:00am 3.5ft 4s 20 25 mph 1026.4mb 49f 44f
3:00am 4.5ft 4s 20 22 mph 1027.1mb 49f 44f
2:00am 4.5ft 4s 20 22 mph 1027.7mb 49f 44f
1:00am 4ft 4s 18 22 mph 1027.7mb 49f 43f
12:00am 4ft  -  18 22 mph 1027.4mb 49f 43f
Thu 04/16 11:00pm 4ft 7s 18 22 mph 1027.1mb 48f 42f
10:00pm 4ft 7s 16 20 mph 1027.1mb 48f 42f
9:00pm 4ft 7s 16 18 mph 1027.3mb 48f 42f
8:00pm 3.5ft 9s 13 16 mph 1027.9mb 48f 41f
7:00pm 3.5ft 8s 13 16 mph 1028.9mb 48f 42f
6:00pm 4ft 9s 11 13 mph 1029.9mb 48f 42f
5:00pm 4ft 9s 7 9 mph 1030.6mb 48f 41f
4:00pm 4.5ft 9s 11 13 mph 1030.8mb 48f 40f
3:00pm 4.5ft 6s 11 16 mph 1030.9mb 48f 40f
2:00pm 5ft 10s 18
mph
1031mb 49f 39f
12:00pm 5ft 6s 18 22 mph 1030.5mb 49f 39f
10:00am 6ft 7s 16 18 mph 1029.8mb 48f 38f
9:00am 5.5ft 6s 16 18 mph 1028.6mb 48f 39f
8:00am 5.5ft 10s 11 16 mph 1027.1mb 48f 39f
7:00am 6ft 11s 18 20 mph 1025.6mb 48f 40f
6:00am 6ft 6s 18 20 mph 1024.7mb 48f 40f
5:00am 6ft 6s 20 22 mph 1023.8mb 48f 39f
4:00am 6ft 6s 18 22 mph 1023mb 47f 38f
3:00am 5ft 6s 18 22 mph 1022.5mb 47f 39f
2:00am 6ft 6s 20
mph
1021.7mb 47f 39f
1:00am 6ft 6s 27 31 mph 1021.2mb 46f 40f
12:00am  -   -  27
mph
1020.4mb 46f 40f
Wed 04/15 11:00pm 6ft 5s 27 34 mph 1018.9mb 47f 41f